Megan B. Settoon — WDD7489 — position and weather

sailwx.info

Track history (hours):
 
Tides and Currents Weather Stations Pressure Air Temp Water Temp Dewpoint Dewpoint Depression Visibility Wind Speed Wind Dir Waves Ship Positions

Megan B. Settoon

Owner: Settoon Towing, L.L.C., Pierre Part, LA. More information available from US FCC via Universal Licensing System and Coast Guard Vessel Documentation Center.

Last reported at 2018-Jun-22 01:53 UTC. Time now 2018-Jun-25 14:17 UTC.
Position N 29°32' W 090°52'.

Length 30 m; draft 6 m.

MMSI: 367187140.

Date/timePositionNaut miles runAvg speedWind from/ knotsBaromVisibWave heightAir tempDewpointWater temp
2018-Jun-22 01:53N 29°32' W 090°52'2 6.1
2018-Jun-22 01:30N 29°32' W 090°49'3 5.8
2018-Jun-22 01:00N 29°32' W 090°46'3 5.2
2018-Jun-22 00:30N 29°34' W 090°43'1 2.0
2018-Jun-22 00:00N 29°35' W 090°43'0 0.0
2018-Jun-21 23:30N 29°35' W 090°43'1 2.2
2018-Jun-21 23:00N 29°34' W 090°43'0 0.8
2018-Jun-21 22:30N 29°33' W 090°43'1 2.9
2018-Jun-21 22:01N 29°32' W 090°42'3 6.1
2018-Jun-21 21:30N 29°29' W 090°43'3 6.2
2018-Jun-21 21:00N 29°26' W 090°43'2 0.0
2018-Jun-19 21:41N 29°24' W 090°44'1 7.2
2018-Jun-19 21:30N 29°26' W 090°43'4 7.2
2018-Jun-19 21:00N 29°29' W 090°43'4 7.2
2018-Jun-19 20:30N 29°33' W 090°42'2 3.0
2018-Jun-19 20:00N 29°34' W 090°43'1 2.2
2018-Jun-19 19:30N 29°34' W 090°44'3 6.1
2018-Jun-19 19:00N 29°32' W 090°47'3 0.2
2018-Jun-19 00:54N 29°32' W 090°51'2 6.1
2018-Jun-19 00:30N 29°32' W 090°48'3 5.1
2018-Jun-19 00:00N 29°33' W 090°45'2 5.0
2018-Jun-18 23:30N 29°34' W 090°43'2 4.5
2018-Jun-18 23:01N 29°36' W 090°43'2 4.6
2018-Jun-18 22:30N 29°36' W 090°40'3 5.7
2018-Jun-18 22:00N 29°35' W 090°37'3 5.2
2018-Jun-18 21:30N 29°34' W 090°34'3 5.7
2018-Jun-18 21:00N 29°34' W 090°31'3 5.9
2018-Jun-18 20:30N 29°33' W 090°27'  
2018-Jun-13 15:37N 29°34' W 090°29'1 7.5
2018-Jun-13 15:29N 29°34' W 090°31'4 7.3
2018-Jun-13 15:00N 29°34' W 090°34'3 6.5
2018-Jun-13 14:30N 29°35' W 090°38'4 7.1
2018-Jun-13 14:00N 29°37' W 090°42'2 4.2
2018-Jun-13 13:30N 29°35' W 090°43'0 0.2
2018-Jun-13 13:00N 29°35' W 090°43'0 0.0
2018-Jun-13 12:30N 29°35' W 090°43'0 0.0
2018-Jun-13 12:00N 29°35' W 090°43'0 0.0
2018-Jun-13 11:30N 29°35' W 090°43'0 0.0
2018-Jun-13 11:00N 29°35' W 090°43'0 0.0
2018-Jun-13 10:30N 29°35' W 090°43'0 0.0
2018-Jun-13 10:00N 29°35' W 090°43'0 0.0
2018-Jun-13 09:30N 29°35' W 090°43'0 0.0
2018-Jun-13 08:56N 29°35' W 090°43'0 0.0
2018-Jun-13 08:29N 29°35' W 090°43'0 0.0
2018-Jun-13 08:00N 29°35' W 090°43'0 0.0
2018-Jun-13 07:30N 29°35' W 090°43'0 0.0
2018-Jun-13 07:00N 29°35' W 090°43'0 0.0
2018-Jun-13 06:30N 29°35' W 090°43'0 0.0
2018-Jun-13 06:00N 29°35' W 090°43'0 0.0
2018-Jun-13 05:30N 29°35' W 090°43'0 0.0
2018-Jun-13 05:00N 29°35' W 090°43'0 0.0
2018-Jun-13 04:30N 29°35' W 090°43'0 0.0
2018-Jun-13 04:00N 29°35' W 090°43'0 0.0
2018-Jun-13 03:30N 29°35' W 090°43'0 0.0
2018-Jun-13 03:00N 29°35' W 090°43'0 0.0
2018-Jun-13 02:30N 29°35' W 090°43'0 0.0
2018-Jun-13 02:00N 29°35' W 090°43'0 0.0
2018-Jun-13 01:30N 29°35' W 090°43'0 0.0
2018-Jun-13 01:00N 29°35' W 090°43'0 0.0
2018-Jun-13 00:30N 29°35' W 090°43'0 0.0
2018-Jun-13 00:00N 29°35' W 090°43'0 0.0
2018-Jun-12 23:30N 29°35' W 090°43'0 0.0
2018-Jun-12 23:00N 29°35' W 090°43'0 0.0
2018-Jun-12 22:30N 29°35' W 090°43'0 0.0
2018-Jun-12 22:00N 29°35' W 090°43'0 0.0
2018-Jun-12 21:30N 29°35' W 090°43'0 0.0
2018-Jun-12 21:00N 29°35' W 090°43'0 0.2
2018-Jun-12 20:30N 29°35' W 090°43'0 0.0
2018-Jun-12 20:00N 29°35' W 090°43'0 0.4
2018-Jun-12 19:30N 29°35' W 090°43'2 4.5
2018-Jun-12 19:00N 29°33' W 090°45'3 6.5
2018-Jun-12 18:30N 29°32' W 090°49'  
Track history (hours):
 
Tides and Currents Weather Stations Pressure Air Temp Water Temp Dewpoint Dewpoint Depression Visibility Wind Speed Wind Dir Waves Ship Positions

Megan B. Settoon

Owner: Settoon Towing, L.L.C., Pierre Part, LA. More information available from US FCC via Universal Licensing System and Coast Guard Vessel Documentation Center.

Last reported at 2018-Jun-22 01:53 UTC. Time now 2018-Jun-25 14:17 UTC.
Position N 29°32' W 090°52'.

Length 30 m; draft 6 m.

MMSI: 367187140.

Date/timePositionNaut miles runAvg speedWind from/ knotsBaromVisibWave heightAir tempDewpointWater temp
2018-Jun-22 01:53N 29°32' W 090°52'2 6.1
2018-Jun-22 01:30N 29°32' W 090°49'3 5.8
2018-Jun-22 01:00N 29°32' W 090°46'3 5.2
2018-Jun-22 00:30N 29°34' W 090°43'1 2.0
2018-Jun-22 00:00N 29°35' W 090°43'0 0.0
2018-Jun-21 23:30N 29°35' W 090°43'1 2.2
2018-Jun-21 23:00N 29°34' W 090°43'0 0.8
2018-Jun-21 22:30N 29°33' W 090°43'1 2.9
2018-Jun-21 22:01N 29°32' W 090°42'3 6.1
2018-Jun-21 21:30N 29°29' W 090°43'3 6.2
2018-Jun-21 21:00N 29°26' W 090°43'2 0.0
2018-Jun-19 21:41N 29°24' W 090°44'1 7.2
2018-Jun-19 21:30N 29°26' W 090°43'4 7.2
2018-Jun-19 21:00N 29°29' W 090°43'4 7.2
2018-Jun-19 20:30N 29°33' W 090°42'2 3.0
2018-Jun-19 20:00N 29°34' W 090°43'1 2.2
2018-Jun-19 19:30N 29°34' W 090°44'3 6.1
2018-Jun-19 19:00N 29°32' W 090°47'3 0.2
2018-Jun-19 00:54N 29°32' W 090°51'2 6.1
2018-Jun-19 00:30N 29°32' W 090°48'3 5.1
2018-Jun-19 00:00N 29°33' W 090°45'2 5.0
2018-Jun-18 23:30N 29°34' W 090°43'2 4.5
2018-Jun-18 23:01N 29°36' W 090°43'2 4.6
2018-Jun-18 22:30N 29°36' W 090°40'3 5.7
2018-Jun-18 22:00N 29°35' W 090°37'3 5.2
2018-Jun-18 21:30N 29°34' W 090°34'3 5.7
2018-Jun-18 21:00N 29°34' W 090°31'3 5.9
2018-Jun-18 20:30N 29°33' W 090°27'  
2018-Jun-13 15:37N 29°34' W 090°29'1 7.5
2018-Jun-13 15:29N 29°34' W 090°31'4 7.3
2018-Jun-13 15:00N 29°34' W 090°34'3 6.5
2018-Jun-13 14:30N 29°35' W 090°38'4 7.1
2018-Jun-13 14:00N 29°37' W 090°42'2 4.2
2018-Jun-13 13:30N 29°35' W 090°43'0 0.2
2018-Jun-13 13:00N 29°35' W 090°43'0 0.0
2018-Jun-13 12:30N 29°35' W 090°43'0 0.0
2018-Jun-13 12:00N 29°35' W 090°43'0 0.0
2018-Jun-13 11:30N 29°35' W 090°43'0 0.0
2018-Jun-13 11:00N 29°35' W 090°43'0 0.0
2018-Jun-13 10:30N 29°35' W 090°43'0 0.0
2018-Jun-13 10:00N 29°35' W 090°43'0 0.0
2018-Jun-13 09:30N 29°35' W 090°43'0 0.0
2018-Jun-13 08:56N 29°35' W 090°43'0 0.0
2018-Jun-13 08:29N 29°35' W 090°43'0 0.0
2018-Jun-13 08:00N 29°35' W 090°43'0 0.0
2018-Jun-13 07:30N 29°35' W 090°43'0 0.0
2018-Jun-13 07:00N 29°35' W 090°43'0 0.0
2018-Jun-13 06:30N 29°35' W 090°43'0 0.0
2018-Jun-13 06:00N 29°35' W 090°43'0 0.0
2018-Jun-13 05:30N 29°35' W 090°43'0 0.0
2018-Jun-13 05:00N 29°35' W 090°43'0 0.0
2018-Jun-13 04:30N 29°35' W 090°43'0 0.0
2018-Jun-13 04:00N 29°35' W 090°43'0 0.0
2018-Jun-13 03:30N 29°35' W 090°43'0 0.0
2018-Jun-13 03:00N 29°35' W 090°43'0 0.0
2018-Jun-13 02:30N 29°35' W 090°43'0 0.0
2018-Jun-13 02:00N 29°35' W 090°43'0 0.0
2018-Jun-13 01:30N 29°35' W 090°43'0 0.0
2018-Jun-13 01:00N 29°35' W 090°43'0 0.0
2018-Jun-13 00:30N 29°35' W 090°43'0 0.0
2018-Jun-13 00:00N 29°35' W 090°43'0 0.0
2018-Jun-12 23:30N 29°35' W 090°43'0 0.0
2018-Jun-12 23:00N 29°35' W 090°43'0 0.0
2018-Jun-12 22:30N 29°35' W 090°43'0 0.0
2018-Jun-12 22:00N 29°35' W 090°43'0 0.0
2018-Jun-12 21:30N 29°35' W 090°43'0 0.0
2018-Jun-12 21:00N 29°35' W 090°43'0 0.2
2018-Jun-12 20:30N 29°35' W 090°43'0 0.0
2018-Jun-12 20:00N 29°35' W 090°43'0 0.4
2018-Jun-12 19:30N 29°35' W 090°43'2 4.5
2018-Jun-12 19:00N 29°33' W 090°45'3 6.5
2018-Jun-12 18:30N 29°32' W 090°49'  

Dump ship's entire track history